Time;durP1;ratioP1;P1;durP2;ratioP2;P2;SDS_P1;SDS_P2;PMS_P1;PMS_P2;Temp;Humidity;BMP_temperature;BMP_pressure;BME280_temperature;BME280_humidity;BME280_pressure;Samples;Min_cycle;Max_cycle;Signal;HPM_P1;HPM_P2
2024/01/20 00:01:53;;;;;;;39.83;26.75;;;;;;;;;;5051651;28;20102;-67
2024/01/20 00:04:20;;;;;;;40.47;25.67;;;;;;;;;;5052080;28;20029;-67
2024/01/20 00:06:46;;;;;;;41.22;26.60;;;;;;;;;;5053839;28;20026;-66
2024/01/20 00:09:12;;;;;;;39.03;26.15;;;;;;;;;;5052632;28;20070;-66
2024/01/20 00:11:40;;;;;;;43.10;25.77;;;;;;;;;;5051350;28;20025;-67
2024/01/20 00:14:06;;;;;;;37.58;23.48;;;;;;;;;;5051791;28;20048;-70
2024/01/20 00:16:32;;;;;;;38.65;24.52;;;;;;;;;;5052163;28;20114;-67
2024/01/20 00:18:58;;;;;;;36.47;24.23;;;;;;;;;;5054161;28;20764;-66
2024/01/20 00:21:24;;;;;;;36.67;23.83;;;;;;;;;;5055870;28;20064;-68
2024/01/20 00:23:50;;;;;;;38.53;24.27;;;;;;;;;;5056242;28;20480;-68
2024/01/20 00:26:16;;;;;;;32.58;22.75;;;;;;;;;;5056202;28;20032;-68
2024/01/20 00:28:42;;;;;;;37.40;23.73;;;;;;;;;;5057195;28;20021;-67
2024/01/20 00:31:08;;;;;;;34.67;22.45;;;;;;;;;;5056088;28;20100;-66
2024/01/20 00:33:34;;;;;;;34.58;23.05;;;;;;;;;;5056113;28;20025;-67
2024/01/20 00:36:00;;;;;;;35.70;23.60;;;;;;;;;;5055763;28;20130;-69
2024/01/20 00:38:27;;;;;;;36.28;23.75;;;;;;;;;;5056112;28;20021;-66
2024/01/20 00:40:53;;;;;;;30.15;21.10;;;;;;;;;;5057331;28;20053;-69
2024/01/20 00:43:19;;;;;;;34.60;21.65;;;;;;;;;;5055930;28;20051;-69
2024/01/20 00:45:46;;;;;;;36.53;21.48;;;;;;;;;;5055807;28;20033;-68
2024/01/20 00:48:12;;;;;;;34.05;19.85;;;;;;;;;;5055742;28;20013;-68
2024/01/20 00:50:38;;;;;;;29.25;19.52;;;;;;;;;;5055520;28;20116;-67
2024/01/20 00:53:04;;;;;;;31.58;20.13;;;;;;;;;;5057138;28;20099;-67
2024/01/20 00:55:30;;;;;;;32.00;20.83;;;;;;;;;;5056124;28;20095;-68
2024/01/20 00:57:56;;;;;;;32.88;19.90;;;;;;;;;;5055596;28;20036;-68
2024/01/20 01:00:22;;;;;;;29.00;19.60;;;;;;;;;;5054728;28;20552;-69
2024/01/20 01:02:48;;;;;;;32.70;20.23;;;;;;;;;;5057305;28;20029;-69
2024/01/20 01:05:14;;;;;;;28.58;18.83;;;;;;;;;;5055475;28;20060;-68
2024/01/20 01:07:40;;;;;;;29.75;19.20;;;;;;;;;;5055521;28;20062;-66
2024/01/20 01:10:06;;;;;;;31.30;18.55;;;;;;;;;;5054590;28;20025;-66
2024/01/20 01:12:33;;;;;;;37.05;19.52;;;;;;;;;;5055356;28;20041;-66
2024/01/20 01:14:59;;;;;;;31.10;18.27;;;;;;;;;;5057252;28;20032;-67
2024/01/20 01:17:25;;;;;;;29.65;18.27;;;;;;;;;;5055245;28;20028;-66
2024/01/20 01:19:51;;;;;;;29.90;17.40;;;;;;;;;;5054532;28;20064;-66
2024/01/20 01:22:17;;;;;;;30.27;17.88;;;;;;;;;;5055133;28;20025;-66
2024/01/20 01:24:43;;;;;;;32.47;17.67;;;;;;;;;;5056253;28;20036;-66
2024/01/20 01:27:09;;;;;;;27.40;17.88;;;;;;;;;;5055811;28;20016;-66
2024/01/20 01:29:35;;;;;;;28.80;17.10;;;;;;;;;;5055091;28;20020;-66
2024/01/20 01:32:02;;;;;;;27.67;17.88;;;;;;;;;;5054223;28;20110;-68
2024/01/20 01:34:28;;;;;;;30.13;16.13;;;;;;;;;;5055085;28;20489;-67
2024/01/20 01:36:54;;;;;;;24.60;16.45;;;;;;;;;;5057094;28;20045;-67
2024/01/20 01:39:21;;;;;;;25.90;16.42;;;;;;;;;;5054770;28;20033;-69
2024/01/20 01:41:47;;;;;;;24.27;15.57;;;;;;;;;;5054350;28;20033;-69
2024/01/20 01:44:13;;;;;;;26.00;15.98;;;;;;;;;;5054693;28;20036;-69
2024/01/20 01:46:39;;;;;;;23.92;15.18;;;;;;;;;;5055244;28;20378;-68
2024/01/20 01:49:06;;;;;;;25.90;15.32;;;;;;;;;;5056133;28;20023;-68
2024/01/20 01:51:32;;;;;;;25.00;16.10;;;;;;;;;;5054186;28;20112;-66
2024/01/20 01:54:08;;;;;;;25.95;15.52;;;;;;;;;;5054685;28;20063;-67
2024/01/20 01:56:34;;;;;;;22.52;15.27;;;;;;;;;;5054616;28;20112;-68
2024/01/20 01:59:00;;;;;;;23.05;15.35;;;;;;;;;;5056489;28;20028;-66
2024/01/20 02:01:26;;;;;;;22.17;15.40;;;;;;;;;;5054099;28;20021;-67
2024/01/20 02:03:52;;;;;;;23.80;14.10;;;;;;;;;;5054496;28;20388;-68
2024/01/20 02:06:18;;;;;;;22.42;14.05;;;;;;;;;;5054266;28;20096;-71
2024/01/20 02:08:44;;;;;;;21.67;14.07;;;;;;;;;;5055646;28;20040;-67
2024/01/20 02:11:10;;;;;;;21.27;13.45;;;;;;;;;;5054418;28;20029;-67
2024/01/20 02:13:36;;;;;;;21.67;13.60;;;;;;;;;;5054526;28;20021;-67
2024/01/20 02:16:03;;;;;;;19.63;13.85;;;;;;;;;;5052807;28;20034;-67
2024/01/20 02:18:29;;;;;;;24.73;13.45;;;;;;;;;;5054291;28;20032;-65
2024/01/20 02:20:55;;;;;;;26.98;14.10;;;;;;;;;;5055516;28;20106;-67
2024/01/20 02:23:21;;;;;;;21.55;13.07;;;;;;;;;;5054127;28;20498;-67
2024/01/20 02:25:48;;;;;;;19.13;12.85;;;;;;;;;;5054180;28;20052;-67
2024/01/20 02:28:14;;;;;;;21.35;13.25;;;;;;;;;;5053929;28;20028;-67
2024/01/20 02:30:43;;;;;;;21.02;12.65;;;;;;;;;;5054185;28;20112;-68
2024/01/20 02:33:09;;;;;;;21.85;12.93;;;;;;;;;;5054898;28;20021;-67
2024/01/20 02:35:35;;;;;;;22.52;12.75;;;;;;;;;;5053853;28;20020;-67
2024/01/20 02:38:01;;;;;;;18.83;12.13;;;;;;;;;;5053757;28;20031;-68
2024/01/20 02:40:28;;;;;;;19.45;12.27;;;;;;;;;;5053463;28;20049;-67
2024/01/20 02:42:54;;;;;;;17.95;11.93;;;;;;;;;;5055265;28;20067;-67
2024/01/20 02:45:20;;;;;;;19.42;11.77;;;;;;;;;;5053804;28;20025;-68
2024/01/20 02:47:46;;;;;;;18.60;12.32;;;;;;;;;;5053795;28;20021;-66
2024/01/20 02:50:12;;;;;;;22.63;12.48;;;;;;;;;;5052811;28;20054;-66
2024/01/20 02:52:38;;;;;;;19.38;10.85;;;;;;;;;;5054060;28;20039;-67
2024/01/20 02:55:04;;;;;;;17.40;11.73;;;;;;;;;;5055106;28;20044;-66
2024/01/20 02:57:30;;;;;;;15.15;10.85;;;;;;;;;;5053489;28;20029;-66
2024/01/20 02:59:56;;;;;;;17.55;11.05;;;;;;;;;;5052731;28;20484;-67
2024/01/20 03:02:23;;;;;;;18.88;11.10;;;;;;;;;;5053420;28;20067;-66
2024/01/20 03:04:49;;;;;;;18.38;11.70;;;;;;;;;;5055144;28;20017;-67
2024/01/20 03:07:16;;;;;;;15.95;10.98;;;;;;;;;;5053397;28;20025;-70
2024/01/20 03:09:42;;;;;;;13.95;10.07;;;;;;;;;;5053602;28;20025;-70
2024/01/20 03:12:08;;;;;;;17.27;11.23;;;;;;;;;;5052253;28;20052;-70
2024/01/20 03:14:34;;;;;;;16.38;10.68;;;;;;;;;;5053416;28;20039;-69
2024/01/20 03:17:00;;;;;;;17.20;10.38;;;;;;;;;;5055368;28;20027;-68
2024/01/20 03:19:26;;;;;;;15.07;10.20;;;;;;;;;;5053005;28;20044;-68
2024/01/20 03:21:52;;;;;;;15.68;10.23;;;;;;;;;;5052400;28;20051;-67
2024/01/20 03:24:19;;;;;;;14.27;9.68;;;;;;;;;;5051620;28;20017;-67
2024/01/20 03:26:49;;;;;;;14.38;9.73;;;;;;;;;;5054355;28;20025;-68
2024/01/20 03:29:15;;;;;;;16.60;9.57;;;;;;;;;;5053268;28;20032;-68
2024/01/20 03:31:41;;;;;;;15.95;10.35;;;;;;;;;;5052527;28;20052;-68
2024/01/20 03:34:08;;;;;;;14.35;9.98;;;;;;;;;;5052732;28;20036;-68
2024/01/20 03:36:34;;;;;;;14.85;10.18;;;;;;;;;;5053610;28;20025;-69
2024/01/20 03:39:01;;;;;;;15.27;9.13;;;;;;;;;;5056469;28;20020;-68
2024/01/20 03:41:27;;;;;;;15.35;9.02;;;;;;;;;;5059293;28;20071;-71
2024/01/20 03:43:53;;;;;;;14.60;9.07;;;;;;;;;;5061251;28;20033;-71
2024/01/20 03:46:19;;;;;;;16.20;10.02;;;;;;;;;;5061541;28;20116;-71
2024/01/20 03:48:45;;;;;;;19.30;9.52;;;;;;;;;;5060197;28;20047;-69
2024/01/20 03:51:11;;;;;;;13.77;8.05;;;;;;;;;;5057934;28;20021;-68
2024/01/20 03:53:37;;;;;;;12.57;8.73;;;;;;;;;;5058211;28;20044;-68
2024/01/20 03:56:03;;;;;;;13.90;8.52;;;;;;;;;;5052159;28;20576;-68
2024/01/20 03:58:29;;;;;;;14.43;9.50;;;;;;;;;;5052841;28;20492;-68
2024/01/20 04:00:55;;;;;;;10.95;7.28;;;;;;;;;;5054012;28;20055;-69
2024/01/20 04:03:21;;;;;;;12.27;8.20;;;;;;;;;;5052432;28;20389;-67
2024/01/20 04:05:47;;;;;;;13.60;8.65;;;;;;;;;;5052521;28;20028;-67
2024/01/20 04:08:13;;;;;;;11.40;8.25;;;;;;;;;;5052345;28;20017;-68
2024/01/20 04:10:40;;;;;;;11.70;7.88;;;;;;;;;;5052538;28;20124;-68
2024/01/20 04:13:06;;;;;;;13.00;8.18;;;;;;;;;;5053975;28;20017;-68
2024/01/20 04:15:32;;;;;;;11.27;7.97;;;;;;;;;;5052525;28;20079;-68
2024/01/20 04:17:58;;;;;;;13.00;8.40;;;;;;;;;;5052380;28;20080;-69
2024/01/20 04:20:24;;;;;;;12.25;7.82;;;;;;;;;;5051885;28;20064;-68
2024/01/20 04:22:50;;;;;;;11.75;7.70;;;;;;;;;;5054597;28;20025;-68
2024/01/20 04:25:16;;;;;;;14.13;7.30;;;;;;;;;;5052219;28;20116;-67
2024/01/20 04:27:42;;;;;;;13.48;8.15;;;;;;;;;;5052119;28;20397;-67
2024/01/20 04:30:09;;;;;;;13.65;7.50;;;;;;;;;;5051322;28;20028;-67
2024/01/20 04:32:36;;;;;;;13.77;7.50;;;;;;;;;;5052348;28;20029;-69
2024/01/20 04:35:02;;;;;;;17.02;7.82;;;;;;;;;;5050048;28;20024;-68
2024/01/20 04:37:27;;;;;;;14.23;7.22;;;;;;;;;;5052308;28;20036;-68
2024/01/20 04:39:54;;;;;;;11.85;7.13;;;;;;;;;;5049947;28;20029;-68
2024/01/20 04:42:20;;;;;;;9.88;6.72;;;;;;;;;;5052147;28;20025;-68
2024/01/20 04:44:46;;;;;;;13.82;7.80;;;;;;;;;;5053597;28;20029;-69
2024/01/20 04:47:12;;;;;;;17.73;6.90;;;;;;;;;;5052666;28;20013;-68
2024/01/20 04:49:38;;;;;;;9.77;6.85;;;;;;;;;;5052097;28;20132;-68
2024/01/20 04:52:04;;;;;;;7.90;5.63;;;;;;;;;;5051419;28;20428;-69
2024/01/20 04:54:30;;;;;;;11.02;6.57;;;;;;;;;;5052109;28;20447;-68
2024/01/20 04:56:57;;;;;;;9.45;6.85;;;;;;;;;;5054331;28;20103;-68
2024/01/20 04:59:24;;;;;;;8.82;6.30;;;;;;;;;;5052107;28;20025;-67
2024/01/20 05:01:50;;;;;;;11.68;6.63;;;;;;;;;;5051384;28;20497;-69
2024/01/20 05:04:16;;;;;;;10.13;6.13;;;;;;;;;;5051506;28;20049;-69
2024/01/20 05:06:45;;;;;;;9.25;6.30;;;;;;;;;;5055757;28;20025;-68
2024/01/20 05:09:12;;;;;;;9.38;6.30;;;;;;;;;;5056367;28;20438;-67
2024/01/20 05:11:38;;;;;;;9.98;6.40;;;;;;;;;;5054928;28;20025;-66
2024/01/20 05:14:04;;;;;;;8.75;5.90;;;;;;;;;;5055306;28;20164;-67
2024/01/20 05:16:30;;;;;;;10.38;6.20;;;;;;;;;;5055518;28;20033;-66
2024/01/20 05:18:56;;;;;;;9.15;6.20;;;;;;;;;;5057751;28;20024;-67
2024/01/20 05:21:22;;;;;;;9.90;6.05;;;;;;;;;;5054761;28;20083;-66
2024/01/20 05:23:48;;;;;;;8.48;6.15;;;;;;;;;;5055498;28;20035;-67
2024/01/20 05:26:14;;;;;;;8.05;5.60;;;;;;;;;;5055175;28;20017;-65
2024/01/20 05:28:41;;;;;;;9.10;6.53;;;;;;;;;;5056102;28;20424;-68
2024/01/20 05:31:07;;;;;;;18.00;6.43;;;;;;;;;;5055953;28;20051;-69
2024/01/20 05:33:33;;;;;;;11.45;5.68;;;;;;;;;;5055318;28;20439;-69
2024/01/20 05:35:59;;;;;;;8.88;5.45;;;;;;;;;;5055055;28;20516;-69
2024/01/20 05:38:25;;;;;;;14.27;5.50;;;;;;;;;;5055122;28;20124;-70
2024/01/20 05:40:51;;;;;;;8.35;5.88;;;;;;;;;;5056597;28;20516;-71
2024/01/20 05:43:17;;;;;;;8.32;5.72;;;;;;;;;;5046946;28;20035;-68
2024/01/20 05:45:43;;;;;;;7.85;5.45;;;;;;;;;;5054970;28;20025;-70
2024/01/20 05:48:09;;;;;;;13.60;5.35;;;;;;;;;;5054803;28;20436;-70
2024/01/20 05:50:35;;;;;;;10.13;5.07;;;;;;;;;;5054304;28;20532;-71
2024/01/20 05:53:01;;;;;;;11.05;5.35;;;;;;;;;;5057128;28;20025;-65
2024/01/20 05:55:27;;;;;;;8.07;5.05;;;;;;;;;;5054811;28;20103;-70
2024/01/20 05:57:54;;;;;;;11.25;5.63;;;;;;;;;;5054810;28;20477;-70
2024/01/20 06:00:21;;;;;;;8.95;5.43;;;;;;;;;;5053933;28;20108;-69
2024/01/20 06:02:47;;;;;;;10.30;5.15;;;;;;;;;;5056589;28;20104;-69
2024/01/20 06:05:14;;;;;;;8.13;5.25;;;;;;;;;;5054872;28;20496;-69
2024/01/20 06:07:40;;;;;;;10.02;5.35;;;;;;;;;;5054591;28;20070;-68
2024/01/20 06:10:06;;;;;;;7.03;4.25;;;;;;;;;;5053675;28;20025;-70
2024/01/20 06:12:32;;;;;;;7.57;4.75;;;;;;;;;;5054571;28;20021;-69
2024/01/20 06:14:59;;;;;;;7.90;4.80;;;;;;;;;;5056683;28;20578;-69
2024/01/20 06:17:25;;;;;;;7.20;5.00;;;;;;;;;;5053534;28;20083;-70
2024/01/20 06:19:51;;;;;;;5.88;4.13;;;;;;;;;;5053897;28;20409;-67
2024/01/20 06:22:17;;;;;;;7.90;4.50;;;;;;;;;;5054290;28;20017;-69
2024/01/20 06:24:43;;;;;;;7.82;4.60;;;;;;;;;;5055068;28;20392;-68
2024/01/20 06:27:09;;;;;;;5.72;4.20;;;;;;;;;;5055409;28;20079;-67
2024/01/20 06:29:35;;;;;;;8.13;4.82;;;;;;;;;;5054481;28;20029;-67
2024/01/20 06:32:01;;;;;;;6.35;4.30;;;;;;;;;;5053502;28;20410;-67
2024/01/20 06:34:27;;;;;;;5.75;4.32;;;;;;;;;;5054220;28;20057;-68
2024/01/20 06:36:53;;;;;;;7.05;4.32;;;;;;;;;;5053978;28;20484;-68
2024/01/20 06:39:18;;;;;;;7.10;4.65;;;;;;;;;;5053944;28;20025;-68
2024/01/20 06:41:45;;;;;;;4.60;3.85;;;;;;;;;;5053415;28;20100;-69
2024/01/20 06:44:11;;;;;;;5.53;4.13;;;;;;;;;;5053667;28;20109;-69
2024/01/20 06:46:37;;;;;;;6.50;4.60;;;;;;;;;;5054314;28;20024;-69
2024/01/20 06:49:03;;;;;;;7.45;4.40;;;;;;;;;;5055664;28;20024;-68
2024/01/20 06:51:29;;;;;;;5.55;3.63;;;;;;;;;;5053255;28;20024;-68
2024/01/20 06:53:58;;;;;;;6.53;3.75;;;;;;;;;;5054126;28;20025;-68
2024/01/20 06:56:25;;;;;;;4.75;3.72;;;;;;;;;;5053920;28;20159;-67
2024/01/20 06:58:52;;;;;;;6.32;3.65;;;;;;;;;;5055908;28;20032;-69
2024/01/20 07:01:18;;;;;;;5.45;3.95;;;;;;;;;;5042521;28;20550;-67
2024/01/20 07:03:44;;;;;;;6.55;3.97;;;;;;;;;;5053816;28;20470;-67
2024/01/20 07:06:10;;;;;;;12.70;3.75;;;;;;;;;;5053256;28;20161;-67
2024/01/20 07:08:36;;;;;;;9.65;3.10;;;;;;;;;;5050204;28;20031;-67
2024/01/20 07:11:02;;;;;;;6.38;3.58;;;;;;;;;;5054657;28;20099;-67
2024/01/20 07:13:28;;;;;;;5.88;3.65;;;;;;;;;;5053651;28;20028;-67
2024/01/20 07:15:54;;;;;;;5.05;3.45;;;;;;;;;;5053382;28;20036;-68
2024/01/20 07:18:20;;;;;;;6.75;3.92;;;;;;;;;;5053407;28;20040;-67
2024/01/20 07:20:46;;;;;;;6.05;3.67;;;;;;;;;;5054275;28;20021;-68
2024/01/20 07:23:12;;;;;;;6.28;3.50;;;;;;;;;;5051699;28;20024;-67
2024/01/20 07:25:39;;;;;;;7.57;4.20;;;;;;;;;;5050863;28;20032;-69
2024/01/20 07:28:05;;;;;;;7.72;3.53;;;;;;;;;;5053011;28;20032;-69
2024/01/20 07:30:31;;;;;;;8.38;3.58;;;;;;;;;;5049732;28;20033;-68
2024/01/20 07:32:58;;;;;;;7.13;3.72;;;;;;;;;;5051912;28;20020;-69
2024/01/20 07:35:25;;;;;;;5.78;3.45;;;;;;;;;;5052802;28;20117;-70
2024/01/20 07:37:51;;;;;;;6.68;3.70;;;;;;;;;;5052529;28;20040;-69
2024/01/20 07:40:17;;;;;;;7.25;3.78;;;;;;;;;;5046284;28;20491;-69
2024/01/20 07:42:43;;;;;;;12.38;3.53;;;;;;;;;;5054045;28;20025;-69
2024/01/20 07:45:09;;;;;;;9.70;3.42;;;;;;;;;;5053888;28;20032;-67
2024/01/20 07:47:35;;;;;;;10.95;3.70;;;;;;;;;;5053017;28;20484;-70
2024/01/20 07:50:02;;;;;;;7.40;3.83;;;;;;;;;;5051833;28;20563;-70
2024/01/20 07:52:28;;;;;;;15.77;3.92;;;;;;;;;;5051439;28;20021;-70
2024/01/20 07:54:54;;;;;;;14.45;4.10;;;;;;;;;;5054585;28;20029;-68
2024/01/20 07:57:20;;;;;;;6.22;3.65;;;;;;;;;;5050590;28;20571;-68
2024/01/20 07:59:46;;;;;;;14.48;3.47;;;;;;;;;;5052163;28;20049;-67
2024/01/20 08:02:13;;;;;;;9.02;4.20;;;;;;;;;;5052508;28;20025;-68
2024/01/20 08:04:39;;;;;;;7.40;3.55;;;;;;;;;;5052931;28;20436;-69
2024/01/20 08:07:04;;;;;;;9.32;3.47;;;;;;;;;;5054221;28;20103;-69
2024/01/20 08:09:30;;;;;;;15.68;3.78;;;;;;;;;;5052110;28;20407;-70
2024/01/20 08:11:56;;;;;;;9.25;3.03;;;;;;;;;;5051656;28;20068;-69
2024/01/20 08:14:22;;;;;;;4.38;3.05;;;;;;;;;;5052465;28;20029;-68
2024/01/20 08:16:48;;;;;;;6.60;3.70;;;;;;;;;;5051732;28;20029;-69
2024/01/20 08:19:14;;;;;;;5.90;3.13;;;;;;;;;;5050611;28;20081;-68
2024/01/20 08:21:40;;;;;;;4.90;2.95;;;;;;;;;;5050379;28;20017;-69
2024/01/20 08:24:06;;;;;;;5.95;2.85;;;;;;;;;;5050681;28;20029;-68
2024/01/20 08:26:32;;;;;;;6.40;2.70;;;;;;;;;;5051289;28;20111;-69
2024/01/20 08:29:01;;;;;;;4.85;2.70;;;;;;;;;;5054740;28;20138;-68
2024/01/20 08:31:28;;;;;;;15.15;3.22;;;;;;;;;;5051923;28;20021;-69
2024/01/20 08:33:54;;;;;;;15.93;4.53;;;;;;;;;;5049623;28;20036;-69
2024/01/20 08:36:20;;;;;;;16.15;4.18;;;;;;;;;;5052005;28;20623;-69
2024/01/20 08:38:46;;;;;;;15.00;4.05;;;;;;;;;;5053941;28;20033;-68
2024/01/20 08:41:12;;;;;;;18.50;4.35;;;;;;;;;;5054359;28;20029;-68
2024/01/20 08:43:42;;;;;;;10.90;4.40;;;;;;;;;;5056440;28;20454;-69
2024/01/20 08:46:08;;;;;;;9.00;3.83;;;;;;;;;;5055880;28;20017;-68
2024/01/20 08:48:34;;;;;;;8.40;4.18;;;16.30;48.80;;;;;;5056173;28;20036;-67
2024/01/20 08:51:00;;;;;;;5.90;3.78;;;15.70;48.70;;;;;;5057631;28;20016;-65
2024/01/20 08:53:29;;;;;;;8.48;3.72;;;15.60;68.00;;;;;;5056030;28;20025;-67
2024/01/20 08:55:54;;;;;;;5.38;3.20;;;16.00;74.30;;;;;;5055858;28;20033;-67
2024/01/20 08:58:20;;;;;;;9.85;3.50;;;16.30;73.60;;;;;;5055796;28;20049;-67
2024/01/20 09:00:45;;;;;;;7.93;3.80;;;16.60;73.20;;;;;;5056745;28;20027;-66
2024/01/20 09:03:11;;;;;;;10.73;3.90;;;16.90;72.20;;;;;;5056473;28;20035;-68
2024/01/20 09:05:37;;;;;;;17.73;3.75;;;17.10;73.20;;;;;;5055512;28;20025;-67
2024/01/20 09:08:05;;;;;;;11.63;3.88;;;17.30;74.30;;;;;;5055464;28;20021;-67
2024/01/20 09:10:30;;;;;;;18.20;3.88;;;17.50;74.90;;;;;;5055316;28;20025;-67
2024/01/20 09:12:56;;;;;;;13.68;4.63;;;17.70;75.40;;;;;;5057786;28;20495;-67
2024/01/20 09:15:21;;;;;;;10.32;3.78;;;17.80;75.50;;;;;;5055509;28;20432;-67
2024/01/20 09:17:47;;;;;;;15.73;4.13;;;17.90;75.30;;;;;;5055519;28;20028;-67
2024/01/20 09:20:13;;;;;;;13.85;3.55;;;18.00;75.50;;;;;;5054547;28;20405;-68
2024/01/20 09:22:38;;;;;;;7.15;3.50;;;18.00;75.60;;;;;;5055858;28;20064;-67
2024/01/20 09:25:05;;;;;;;12.68;3.47;;;18.20;75.60;;;;;;5056968;28;20100;-67
2024/01/20 09:27:31;;;;;;;9.77;3.92;;;18.20;75.30;;;;;;5055493;28;20025;-67
2024/01/20 09:29:56;;;;;;;7.93;3.28;;;18.30;75.20;;;;;;5054694;28;20018;-67
2024/01/20 09:32:22;;;;;;;9.07;3.50;;;18.30;75.00;;;;;;5055030;28;20029;-67
2024/01/20 09:34:47;;;;;;;13.63;3.47;;;18.40;75.30;;;;;;5056929;28;20037;-67
2024/01/20 09:37:13;;;;;;;8.80;3.53;;;18.40;75.70;;;;;;5055728;28;20025;-70
2024/01/20 09:39:39;;;;;;;11.88;3.65;;;18.50;74.90;;;;;;5054788;28;20033;-68
2024/01/20 09:42:05;;;;;;;7.03;3.35;;;18.50;74.60;;;;;;5054475;28;20043;-67
2024/01/20 09:44:31;;;;;;;14.13;3.40;;;18.50;74.20;;;;;;5055130;28;20027;-71
2024/01/20 09:46:57;;;;;;;13.98;3.50;;;18.60;74.70;;;;;;5057439;28;20099;-68
2024/01/20 09:49:22;;;;;;;15.82;3.40;;;18.60;74.00;;;;;;5055000;28;20029;-67
2024/01/20 09:51:52;;;;;;;14.90;3.08;;;18.70;74.80;;;;;;5055062;28;20025;-67
2024/01/20 09:54:24;;;;;;;12.30;3.50;;;18.80;74.60;;;;;;5054717;28;20029;-67
2024/01/20 09:56:50;;;;;;;15.77;3.47;;;18.80;74.30;;;;;;5057212;28;20053;-68
2024/01/20 09:59:18;;;;;;;12.65;3.25;;;18.90;74.00;;;;;;5055161;28;20028;-67
2024/01/20 10:01:45;;;;;;;15.18;3.35;;;18.90;73.90;;;;;;5054181;28;20511;-67
2024/01/20 10:04:15;;;;;;;12.95;3.22;;;18.90;73.80;;;;;;5054749;28;20033;-68
2024/01/20 10:06:40;;;;;;;8.07;3.08;;;18.90;73.80;;;;;;5053006;28;20108;-66
2024/01/20 10:09:06;;;;;;;10.52;2.75;;;18.90;73.60;;;;;;5053772;28;20112;-66
2024/01/20 10:11:32;;;;;;;11.43;3.47;;;19.00;73.50;;;;;;5053073;28;20741;-66
2024/01/20 10:13:57;;;;;;;10.25;2.97;;;19.00;73.40;;;;;;5053461;28;20021;-66
2024/01/20 10:16:23;;;;;;;12.13;3.00;;;19.00;73.40;;;;;;5054372;28;20047;-66
2024/01/20 10:18:49;;;;;;;9.82;2.67;;;19.00;73.30;;;;;;5056566;28;20029;-66
2024/01/20 10:21:14;;;;;;;12.10;2.80;;;19.00;73.20;;;;;;5054070;28;20031;-66
2024/01/20 10:23:40;;;;;;;11.55;2.80;;;19.00;73.50;;;;;;5054365;28;20048;-65
2024/01/20 10:26:07;;;;;;;8.68;3.33;;;19.00;73.30;;;;;;5051596;28;20101;-65
2024/01/20 10:28:33;;;;;;;6.03;2.60;;;19.00;73.30;;;;;;5053776;28;20388;-65
2024/01/20 10:31:08;;;;;;;9.98;3.28;;;19.00;73.20;;;;;;5052662;28;20088;-65
2024/01/20 10:33:34;;;;;;;12.65;3.58;;;19.00;73.10;;;;;;5053961;28;20052;-62
2024/01/20 10:36:04;;;;;;;12.00;3.20;;;19.00;73.00;;;;;;5054190;28;20021;-66
2024/01/20 10:38:37;;;;;;;7.47;3.15;;;19.00;72.90;;;;;;5054505;28;20029;-65
2024/01/20 10:41:04;;;;;;;10.25;3.47;;;19.00;72.80;;;;;;5051462;28;20020;-66
2024/01/20 10:43:39;;;;;;;5.57;2.60;;;18.90;72.80;;;;;;5054222;28;20028;-66
2024/01/20 10:46:22;;;;;;;7.55;2.63;;;19.00;72.80;;;;;;5053955;28;20072;-66
2024/01/20 10:48:53;;;;;;;6.32;2.22;;;19.00;72.70;;;;;;5055935;28;20136;-66
2024/01/20 10:51:31;;;;;;;4.30;2.45;;;18.90;72.70;;;;;;5045318;28;20028;-65
2024/01/20 10:53:57;;;;;;;7.57;2.92;;;18.90;72.70;;;;;;5054065;28;20058;-65
2024/01/20 10:56:26;;;;;;;5.55;2.65;;;18.90;72.70;;;;;;5053642;28;20623;-65
2024/01/20 10:59:04;;;;;;;5.55;2.58;;;18.90;72.60;;;;;;5056234;28;20041;-65
2024/01/20 11:01:30;;;;;;;5.75;2.45;;;18.90;72.60;;;;;;5046664;28;20511;-65
2024/01/20 11:03:56;;;;;;;10.55;2.55;;;18.90;72.60;;;;;;5053189;28;20052;-65
2024/01/20 11:06:24;;;;;;;14.55;2.88;;;18.90;72.50;;;;;;5053461;28;20484;-65
2024/01/20 11:08:53;;;;;;;8.77;2.83;;;18.90;72.50;;;;;;5055721;28;20032;-65
2024/01/20 11:11:20;;;;;;;5.28;2.42;;;18.90;72.50;;;;;;5045059;28;20033;-66
2024/01/20 11:13:47;;;;;;;6.05;2.72;;;18.90;72.50;;;;;;5053780;28;20023;-65
2024/01/20 11:16:22;;;;;;;9.43;2.38;;;18.90;72.50;;;;;;5053114;28;20025;-65
2024/01/20 11:18:48;;;;;;;5.88;2.33;;;18.80;72.40;;;;;;5055241;28;20098;-66
2024/01/20 11:21:19;;;;;;;3.72;2.58;;;18.90;72.40;;;;;;5053602;28;20056;-65
2024/01/20 11:24:05;;;;;;;8.18;2.70;;;18.80;72.40;;;;;;5053627;28;20384;-65
2024/01/20 11:26:35;;;;;;;4.05;2.05;;;18.80;72.30;;;;;;5053252;28;20029;-65
2024/01/20 11:29:03;;;;;;;6.53;2.60;;;18.80;72.30;;;;;;5056009;28;20032;-63
2024/01/20 11:31:32;;;;;;;6.45;2.35;;;18.80;72.30;;;;;;5052532;28;20036;-65
2024/01/20 11:34:00;;;;;;;8.20;2.55;;;18.80;72.30;;;;;;5053432;28;20116;-65
2024/01/20 11:36:29;;;;;;;5.88;2.15;;;18.80;72.30;;;;;;5053540;28;20063;-66
2024/01/20 11:38:59;;;;;;;6.20;2.00;;;18.80;72.30;;;;;;5055904;28;20111;-63
2024/01/20 11:41:26;;;;;;;3.72;2.00;;;18.80;72.30;;;;;;5052628;28;20025;-65
2024/01/20 11:43:52;;;;;;;5.85;2.30;;;18.70;72.30;;;;;;5053143;28;20523;-65
2024/01/20 11:46:18;;;;;;;5.00;2.63;;;18.70;72.30;;;;;;5053116;28;20052;-66
2024/01/20 11:48:47;;;;;;;3.03;2.00;;;18.80;72.20;;;;;;5054387;28;20013;-66
2024/01/20 11:51:12;;;;;;;3.28;1.63;;;18.80;72.20;;;;;;5053541;28;20095;-66
2024/01/20 11:53:38;;;;;;;5.95;2.47;;;18.70;72.20;;;;;;5052819;28;20052;-65
2024/01/20 11:56:05;;;;;;;2.67;1.80;;;18.70;72.20;;;;;;5052665;28;20037;-66
2024/01/20 11:58:31;;;;;;;4.03;2.20;;;18.70;72.20;;;;;;5052847;28;20083;-66
2024/01/20 12:00:58;;;;;;;3.42;2.40;;;18.70;72.20;;;;;;5052845;28;20027;-68
2024/01/20 12:03:26;;;;;;;5.00;2.08;;;18.70;72.20;;;;;;5053713;28;20035;-66
2024/01/20 12:05:52;;;;;;;4.07;2.10;;;18.70;72.20;;;;;;5052865;28;20062;-66
2024/01/20 12:08:18;;;;;;;4.43;1.95;;;18.70;72.20;;;;;;5052735;28;20499;-65
2024/01/20 12:10:48;;;;;;;5.80;2.40;;;18.70;72.20;;;;;;5053551;28;20518;-65
2024/01/20 12:13:15;;;;;;;3.08;1.83;;;18.70;72.20;;;;;;5053623;28;20357;-65
2024/01/20 12:15:42;;;;;;;5.78;2.20;;;18.70;72.20;;;;;;5054095;28;20048;-66
2024/01/20 12:18:08;;;;;;;3.75;2.00;;;18.70;72.20;;;;;;5057092;28;20040;-66
2024/01/20 12:20:36;;;;;;;4.18;2.17;;;18.60;72.10;;;;;;5056905;28;20021;-66
2024/01/20 12:23:02;;;;;;;5.57;2.33;;;18.70;72.10;;;;;;5055209;28;20519;-63
2024/01/20 12:25:29;;;;;;;4.43;2.40;;;18.70;72.10;;;;;;5055463;28;20025;-65
2024/01/20 12:27:56;;;;;;;3.30;1.73;;;18.60;72.10;;;;;;5056602;28;20021;-66
2024/01/20 12:30:26;;;;;;;5.97;2.10;;;18.70;72.00;;;;;;5056071;28;20043;-65
2024/01/20 12:32:52;;;;;;;3.08;1.80;;;18.70;72.00;;;;;;5059191;28;20028;-65
2024/01/20 12:35:21;;;;;;;3.58;2.00;;;18.60;72.00;;;;;;5056690;28;20021;-66
2024/01/20 12:37:49;;;;;;;5.65;2.13;;;18.60;72.00;;;;;;5056722;28;20029;-65
2024/01/20 12:40:15;;;;;;;2.67;1.90;;;18.60;71.90;;;;;;5055917;28;20044;-66
2024/01/20 12:42:41;;;;;;;6.60;1.92;;;18.60;72.00;;;;;;5057474;28;20024;-66
2024/01/20 12:45:08;;;;;;;4.47;1.63;;;18.60;72.00;;;;;;5057618;28;20536;-66
2024/01/20 12:47:34;;;;;;;2.55;1.75;;;18.60;72.00;;;;;;5056521;28;20025;-65
2024/01/20 12:50:00;;;;;;;2.92;1.90;;;18.60;71.90;;;;;;5055359;28;20032;-65
2024/01/20 12:52:26;;;;;;;2.42;1.88;;;18.60;72.00;;;;;;5056140;28;20114;-67
2024/01/20 12:54:53;;;;;;;2.10;1.40;;;18.60;71.90;;;;;;5058636;28;20037;-66
2024/01/20 12:57:19;;;;;;;3.65;1.75;;;18.60;71.90;;;;;;5048623;28;20100;-66
2024/01/20 12:59:46;;;;;;;3.13;1.73;;;18.60;71.90;;;;;;5055836;28;20100;-63
2024/01/20 13:02:14;;;;;;;2.28;1.35;;;18.60;71.80;;;;;;5056102;28;20120;-66
2024/01/20 13:04:42;;;;;;;2.30;1.40;;;18.60;71.80;;;;;;5056645;28;20515;-64
2024/01/20 13:07:08;;;;;;;2.33;1.60;;;18.60;71.80;;;;;;5057406;28;20044;-66
2024/01/20 13:09:33;;;;;;;6.32;1.63;;;18.60;71.80;;;;;;5056203;28;20070;-65
2024/01/20 13:11:59;;;;;;;3.35;1.75;;;18.60;71.80;;;;;;5055189;28;20415;-65
2024/01/20 13:14:25;;;;;;;4.93;1.95;;;18.60;71.70;;;;;;5055986;28;20029;-66
2024/01/20 13:16:50;;;;;;;3.28;1.70;;;18.60;71.70;;;;;;5058049;28;20025;-65
2024/01/20 13:19:16;;;;;;;2.85;1.65;;;18.60;71.70;;;;;;5056216;28;20092;-66
2024/01/20 13:21:42;;;;;;;1.58;1.27;;;18.60;71.70;;;;;;5055223;28;20037;-65
2024/01/20 13:24:08;;;;;;;3.25;1.48;;;18.60;71.70;;;;;;5055624;28;20021;-65
2024/01/20 13:26:34;;;;;;;3.45;1.50;;;18.50;71.70;;;;;;5055503;28;20017;-66
2024/01/20 13:28:59;;;;;;;4.78;1.45;;;18.50;71.70;;;;;;5058364;28;20013;-65
2024/01/20 13:31:25;;;;;;;3.50;1.50;;;18.50;71.70;;;;;;5055074;28;20013;-66
2024/01/20 13:33:51;;;;;;;2.35;1.60;;;18.50;71.70;;;;;;5055947;28;20028;-65
2024/01/20 13:36:16;;;;;;;2.45;1.63;;;18.50;71.70;;;;;;5055305;28;20047;-66
2024/01/20 13:38:43;;;;;;;4.72;2.03;;;18.50;71.70;;;;;;5056817;28;20040;-66
2024/01/20 13:41:09;;;;;;;4.25;1.63;;;18.50;71.70;;;;;;5056118;28;20104;-65
2024/01/20 13:43:35;;;;;;;2.40;1.58;;;18.50;71.70;;;;;;5055493;28;20452;-66
2024/01/20 13:46:01;;;;;;;2.47;1.70;;;18.50;71.70;;;;;;5053967;28;20060;-65